INFORMACIÓN METAR y TAF

METAR FOR SARC
ADDS - METARS form results

(0553 UTC 08 December 2022)
Data provider http://aviationweather.gov/metar/data/
 
METAR text: SARC 080500Z 04003KT 8000 NSC 29/22 Q1004
Conditions at: SARC (CORRIENTES AIRPO, AR) observed 0500 UTC 08 December 2022
Temperature: 29.0°C (84°F)
Dewpoint: 22.0°C (72°F) [RH = 66%]
Pressure (altimeter): 29.65 inches Hg (1004.0 mb)
Winds: from the NE (40 degrees) at 3 MPH (3 knots; 1.5 m/s)
Visibility: 5 miles ( 8 km)
Ceiling: at least 12,000 feet AGL
Clouds: sky clear below 12,000 feet AGL
Weather: no significant weather observed at this time

 MAPA DE AEROPUERTO

 INFORMACIÓN DE PISTA
Pista 2 Longitud 6890 ft Ancho 148 ft
Elevación 202 ft Umbral desplazado 0 ft Rumbo de pista 8
Pista 20 Longitud 6890 ft Ancho 148 ft
Elevación 199 ft Umbral desplazado 0 ft Rumbo de pista 188

 FRECUENCIAS DEL AEROPUERTO
Tipo TWR Nombre TWR Frecuencia 118.3 MHZ

 RADIO AYUDAS DEL AEROPUERTO
Tipo NDB Nombre Corrientes Frecuencia 305 KHZ
Tipo VOR-DME Nombre Corrientes Frecuencia 115400 KHZ



©2022 LAPA Virtual - Todos los derechos reservados.

VAM [MOD Version] - Powered & Development by AccessPoint LLC